Decoded Metar for SBPS (PORTO SEGURO in BRAZIL) (IATA:N/A) | Meteo·Mobile Aviation Weather
aviador You're here:

SBPS Decoded Metar

PORTO SEGURO in BRAZIL
Report Time2019-02-16 00:00:00
UTC Time2019-02-16 00:53:30
Flight Rules vfr VFR
Wind080° at 07 kt
W.Decomp.*RWY 10: 7.0 kt HW 0.4 kt RCW
W.Rank080° ranks 1
Current wind is below 080° avg. (10.1)
Visibility9999 m
Phenomena:N/A
Clouds:Few 018 Hf
Expected CloudBase > 1,200 ft AGL from Temp-Dew spread
CeilingNone
Temp27°C (ISA +12)
Dew Point24°C (84% RH)
Heat Index30.1°C
QNH1011 hPa
Density Alt2,047 ft
Elevation167 ft
Report Wrong Elevation
Raw Report
METAR SBPS 160000Z 08007KT 9999 FEW018 27/24 Q1011=

Extra information for SBPS:More info

Metar Taf Metar & Taf Last 4 Metars F.Rules Stats Wind Profile Meteogram Temp Stats Airport Information Weather charts Add Link Nearby VenuesMetar ALERT Operation Metar Decoded Social comments